createdAt,value
2017-09-03T00:00:21.125Z,785.52
2017-09-03T00:00:25.357Z,785.57
2017-09-03T00:00:29.191Z,785.54
2017-09-03T00:00:33.278Z,785.54
2017-09-03T00:00:37.484Z,785.53
2017-09-03T00:00:41.450Z,785.53
2017-09-03T00:00:45.539Z,785.51
2017-09-03T00:00:49.622Z,785.54
2017-09-03T00:00:53.692Z,785.52
2017-09-03T00:00:58.171Z,785.52
2017-09-03T00:01:02.385Z,785.5
2017-09-03T00:01:06.598Z,785.54
2017-09-03T00:01:10.435Z,785.49
2017-09-03T00:01:14.770Z,785.5
2017-09-03T00:01:19.224Z,785.52
2017-09-03T00:01:23.450Z,785.52
2017-09-03T00:01:27.659Z,785.51
2017-09-03T00:01:31.612Z,785.48
2017-09-03T00:01:35.703Z,785.52
2017-09-03T00:01:39.914Z,785.49
2017-09-03T00:01:44.373Z,785.46
2017-09-03T00:01:48.448Z,785.52
2017-09-03T00:01:52.668Z,785.49
2017-09-03T00:01:57.021Z,785.5
2017-09-03T00:02:01.028Z,785.5
2017-09-03T00:02:05.164Z,785.48
2017-09-03T00:02:09.381Z,785.43
2017-09-03T00:02:13.450Z,785.45
2017-09-03T00:02:17.649Z,785.43
2017-09-03T00:02:21.606Z,785.46
2017-09-03T00:02:25.454Z,785.47
2017-09-03T00:02:29.549Z,785.46
2017-09-03T00:02:33.636Z,785.51
2017-09-03T00:02:37.981Z,785.55
2017-09-03T00:02:42.188Z,785.45
2017-09-03T00:02:46.441Z,785.47
2017-09-03T00:02:50.638Z,785.43
2017-09-03T00:02:54.463Z,785.46
2017-09-03T00:02:58.544Z,785.43
2017-09-03T00:03:02.804Z,785.46
2017-09-03T00:03:06.891Z,785.48
2017-09-03T00:03:10.993Z,785.51
2017-09-03T00:03:14.959Z,785.49
2017-09-03T00:03:19.406Z,785.46
2017-09-03T00:03:23.619Z,785.48
2017-09-03T00:03:27.824Z,785.46
2017-09-03T00:03:31.923Z,785.47
2017-09-03T00:03:35.885Z,785.48
2017-09-03T00:03:39.988Z,785.47
2017-09-03T00:03:44.320Z,785.46
2017-09-03T00:03:48.154Z,785.42
2017-09-03T00:03:52.354Z,785.46
2017-09-03T00:03:56.302Z,785.44
2017-09-03T00:04:00.268Z,785.43
2017-09-03T00:04:04.845Z,785.47
2017-09-03T00:04:09.057Z,785.46
2017-09-03T00:04:13.400Z,785.48
2017-09-03T00:04:17.363Z,785.49
2017-09-03T00:04:21.193Z,785.46
2017-09-03T00:04:25.523Z,785.46
2017-09-03T00:04:29.497Z,785.46
2017-09-03T00:04:33.336Z,785.42
2017-09-03T00:04:37.679Z,785.47
2017-09-03T00:04:41.759Z,785.4
2017-09-03T00:04:45.724Z,785.46
2017-09-03T00:04:49.817Z,785.4
2017-09-03T00:04:53.784Z,785.41
2017-09-03T00:04:57.743Z,785.4
2017-09-03T00:05:01.582Z,785.43
2017-09-03T00:05:05.949Z,785.43
2017-09-03T00:05:10.298Z,785.43
2017-09-03T00:05:14.255Z,785.41
2017-09-03T00:05:18.733Z,785.42
2017-09-03T00:05:22.955Z,785.41
2017-09-03T00:05:27.166Z,785.41
2017-09-03T00:05:31.002Z,785.4
2017-09-03T00:05:35.093Z,785.41
2017-09-03T00:05:39.320Z,785.4
2017-09-03T00:05:43.536Z,785.4
2017-09-03T00:05:47.506Z,785.35
2017-09-03T00:05:51.716Z,785.38
2017-09-03T00:05:55.792Z,785.37
2017-09-03T00:06:00.011Z,785.37
2017-09-03T00:06:04.096Z,785.35
2017-09-03T00:06:08.200Z,785.37
2017-09-03T00:06:12.409Z,785.35
2017-09-03T00:06:16.493Z,785.34
2017-09-03T00:06:20.589Z,785.37
2017-09-03T00:06:24.410Z,785.35
2017-09-03T00:06:28.240Z,785.36
2017-09-03T00:06:32.312Z,785.32
2017-09-03T00:06:36.404Z,785.36
2017-09-03T00:06:40.635Z,785.35
2017-09-03T00:06:44.720Z,785.36
2017-09-03T00:06:48.928Z,785.38
2017-09-03T00:06:52.750Z,785.35
2017-09-03T00:06:56.964Z,785.37
2017-09-03T00:07:01.293Z,785.34
2017-09-03T00:07:05.620Z,785.34
2017-09-03T00:07:09.837Z,785.32
2017-09-03T00:07:13.800Z,785.37
2017-09-03T00:07:17.880Z,785.35
2017-09-03T00:07:21.827Z,785.32
2017-09-03T00:07:25.917Z,785.32
2017-09-03T00:07:30.007Z,785.31
2017-09-03T00:07:34.209Z,785.33
2017-09-03T00:07:38.408Z,785.33
2017-09-03T00:07:42.506Z,785.31
2017-09-03T00:07:46.598Z,785.29
2017-09-03T00:07:50.791Z,785.32
2017-09-03T00:07:54.994Z,785.32
2017-09-03T00:07:59.223Z,785.3
2017-09-03T00:08:03.463Z,785.3
2017-09-03T00:08:07.674Z,785.32
2017-09-03T00:08:11.778Z,785.3
2017-09-03T00:08:15.738Z,785.3
2017-09-03T00:08:20.071Z,785.3
2017-09-03T00:08:24.404Z,785.31
2017-09-03T00:08:28.496Z,785.29
2017-09-03T00:08:32.588Z,785.27
2017-09-03T00:08:36.918Z,785.31
2017-09-03T00:08:41.001Z,785.28
2017-09-03T00:08:45.217Z,785.28
2017-09-03T00:08:49.291Z,785.29
2017-09-03T00:08:53.372Z,785.29
2017-09-03T00:08:57.209Z,785.28
2017-09-03T00:09:01.166Z,785.28
2017-09-03T00:09:05.266Z,785.28
2017-09-03T00:09:09.600Z,785.28
2017-09-03T00:09:13.815Z,785.29
2017-09-03T00:09:17.890Z,785.27
2017-09-03T00:09:21.853Z,785.27
2017-09-03T00:09:25.799Z,785.27
2017-09-03T00:09:29.885Z,785.28
2017-09-03T00:09:33.982Z,785.25
2017-09-03T00:09:37.942Z,785.23
2017-09-03T00:09:42.158Z,785.24
2017-09-03T00:09:46.122Z,785.22
2017-09-03T00:09:50.076Z,785.21
2017-09-03T00:09:54.157Z,785.19
2017-09-03T00:09:58.236Z,785.21
2017-09-03T00:10:02.626Z,785.18
2017-09-03T00:10:06.583Z,785.2
2017-09-03T00:10:10.797Z,785.21
2017-09-03T00:10:15.015Z,785.19
2017-09-03T00:10:19.239Z,785.17
2017-09-03T00:10:23.610Z,785.17
2017-09-03T00:10:27.704Z,785.18
2017-09-03T00:10:31.921Z,785.15
2017-09-03T00:10:35.997Z,785.18
2017-09-03T00:10:40.365Z,785.18
2017-09-03T00:10:44.319Z,785.16
2017-09-03T00:10:48.407Z,785.16
2017-09-03T00:10:52.251Z,785.14
2017-09-03T00:10:56.448Z,785.16
2017-09-03T00:11:00.784Z,785.13
2017-09-03T00:11:05.415Z,785.13
2017-09-03T00:11:09.628Z,785.14
2017-09-03T00:11:13.838Z,785.13
2017-09-03T00:11:18.050Z,785.14
2017-09-03T00:11:22.137Z,785.11
2017-09-03T00:11:26.336Z,785.1
2017-09-03T00:11:30.415Z,785.11
2017-09-03T00:11:34.762Z,785.11
2017-09-03T00:11:38.980Z,785.12
2017-09-03T00:11:43.069Z,785.09
2017-09-03T00:11:47.273Z,785.04
2017-09-03T00:11:51.367Z,785.05
2017-09-03T00:11:55.464Z,785.1
2017-09-03T00:11:59.576Z,785.11
2017-09-03T00:12:03.685Z,785.12
2017-09-03T00:12:07.539Z,785.1
2017-09-03T00:12:11.749Z,785.09
2017-09-03T00:12:16.085Z,785.1
2017-09-03T00:12:20.162Z,785.07
2017-09-03T00:12:24.508Z,785.07
2017-09-03T00:12:28.591Z,785.05
2017-09-03T00:12:32.929Z,785.03
2017-09-03T00:12:37.013Z,785.02
2017-09-03T00:12:41.216Z,785.02
2017-09-03T00:12:45.179Z,785.05
2017-09-03T00:12:49.269Z,785.05
2017-09-03T00:12:53.621Z,785.04
2017-09-03T00:12:57.839Z,785.04
2017-09-03T00:13:02.531Z,785.05
2017-09-03T00:13:06.367Z,785.07
2017-09-03T00:13:10.454Z,785.06
2017-09-03T00:13:14.569Z,785.08
2017-09-03T00:13:18.523Z,785.04
2017-09-03T00:13:22.473Z,785.05
2017-09-03T00:13:26.302Z,785.05
2017-09-03T00:13:30.265Z,785.05
2017-09-03T00:13:34.217Z,785.1
2017-09-03T00:13:38.429Z,785.09
2017-09-03T00:13:42.635Z,785.04
2017-09-03T00:13:46.957Z,785.07
2017-09-03T00:13:51.293Z,785.01
2017-09-03T00:13:55.269Z,785.01
2017-09-03T00:13:59.491Z,785.01
2017-09-03T00:14:03.321Z,785.04
2017-09-03T00:14:07.405Z,785.03
2017-09-03T00:14:11.483Z,785.06
2017-09-03T00:14:15.549Z,785.04
2017-09-03T00:14:19.622Z,785.04
2017-09-03T00:14:23.967Z,785.05
2017-09-03T00:14:27.923Z,785.01
2017-09-03T00:14:31.756Z,784.99
2017-09-03T00:14:35.714Z,785.03
2017-09-03T00:14:39.784Z,785.01
2017-09-03T00:14:43.751Z,785.01
2017-09-03T00:14:47.722Z,785.03
2017-09-03T00:14:51.790Z,785.07
2017-09-03T00:14:55.742Z,784.98
2017-09-03T00:14:59.959Z,785.04
2017-09-03T00:15:04.029Z,785.05
2017-09-03T00:15:08.252Z,785.03
2017-09-03T00:15:12.200Z,785.04
2017-09-03T00:15:16.138Z,784.99
2017-09-03T00:15:19.966Z,785
2017-09-03T00:15:24.178Z,784.99
2017-09-03T00:15:28.518Z,785
2017-09-03T00:15:32.495Z,784.97
2017-09-03T00:16:08.691Z,785.06
2017-09-03T00:16:12.770Z,785.05
2017-09-03T00:16:16.859Z,785.03
2017-09-03T00:16:20.820Z,785.03
2017-09-03T00:16:24.782Z,785
2017-09-03T00:16:28.868Z,785.05
2017-09-03T00:16:32.953Z,785
2017-09-03T00:16:37.203Z,785.05
2017-09-03T00:16:41.424Z,785.05
2017-09-03T00:16:45.393Z,785.05
2017-09-03T00:16:49.363Z,785.05
2017-09-03T00:16:53.322Z,785.06
2017-09-03T00:16:57.275Z,785.05
2017-09-03T00:17:01.224Z,785.07
2017-09-03T00:17:05.389Z,785.08
2017-09-03T00:17:09.593Z,785.07
2017-09-03T00:17:13.690Z,785.06
2017-09-03T00:17:17.647Z,785.05
2017-09-03T00:17:21.596Z,785.09
2017-09-03T00:17:25.682Z,785.09
2017-09-03T00:17:29.498Z,785.08
2017-09-03T00:17:33.583Z,785.08
2017-09-03T00:17:37.553Z,785.08
2017-09-03T00:17:41.898Z,785.09
2017-09-03T00:17:45.981Z,785.11
2017-09-03T00:17:49.954Z,785.13
2017-09-03T00:17:54.158Z,785.14
2017-09-03T00:17:58.382Z,785.09
2017-09-03T00:18:02.447Z,785.17
2017-09-03T00:18:06.793Z,785.11
2017-09-03T00:18:11.122Z,785.11
2017-09-03T00:18:15.203Z,785.13
2017-09-03T00:18:19.176Z,785.14
2017-09-03T00:18:23.131Z,785.16
2017-09-03T00:18:27.246Z,785.13
2017-09-03T00:18:31.202Z,785.12
2017-09-03T00:18:35.430Z,785.13
2017-09-03T00:18:39.273Z,785.12
2017-09-03T00:18:43.235Z,785.12
2017-09-03T00:18:47.322Z,785.14
2017-09-03T00:18:51.397Z,785.13
2017-09-03T00:18:55.482Z,785.15
2017-09-03T00:18:59.574Z,785.18
2017-09-03T00:19:03.796Z,785.14
2017-09-03T00:19:07.890Z,785.21
2017-09-03T00:19:11.976Z,785.17
2017-09-03T00:19:16.063Z,785.18
2017-09-03T00:19:20.010Z,785.17
2017-09-03T00:19:23.966Z,785.15
2017-09-03T00:19:28.189Z,785.19
2017-09-03T00:19:32.409Z,785.18
2017-09-03T00:19:36.238Z,785.18
2017-09-03T00:19:40.444Z,785.19
2017-09-03T00:19:44.655Z,785.18
2017-09-03T00:19:49.032Z,785.21
2017-09-03T00:19:52.990Z,785.2
2017-09-03T00:19:56.952Z,785.19
2017-09-03T00:20:01.295Z,785.2
2017-09-03T00:20:05.484Z,785.2
2017-09-03T00:20:09.806Z,785.19
2017-09-03T00:20:14.142Z,785.2
2017-09-03T00:20:18.468Z,785.2
2017-09-03T00:20:22.562Z,785.21
2017-09-03T00:20:26.393Z,785.2
2017-09-03T00:20:30.216Z,785.22
2017-09-03T00:20:34.187Z,785.23
2017-09-03T00:20:38.396Z,785.25
2017-09-03T00:20:42.487Z,785.22
2017-09-03T00:20:46.693Z,785.25
2017-09-03T00:20:50.774Z,785.18
2017-09-03T00:20:54.865Z,785.23
2017-09-03T00:20:59.087Z,785.24
2017-09-03T00:21:03.340Z,785.24
2017-09-03T00:21:07.308Z,785.25
2017-09-03T00:21:11.386Z,785.25
2017-09-03T00:21:15.594Z,785.25
2017-09-03T00:21:19.834Z,785.22
2017-09-03T00:21:23.909Z,785.27
2017-09-03T00:21:27.856Z,785.28
2017-09-03T00:21:31.945Z,785.27
2017-09-03T00:21:36.273Z,785.29
2017-09-03T00:21:40.478Z,785.27
2017-09-03T00:21:44.564Z,785.25
2017-09-03T00:21:48.770Z,785.28
2017-09-03T00:21:53.097Z,785.24
2017-09-03T00:21:57.179Z,785.27
2017-09-03T00:22:01.278Z,785.28
2017-09-03T00:22:05.491Z,785.29
2017-09-03T00:22:09.590Z,785.3
2017-09-03T00:22:13.429Z,785.28
2017-09-03T00:22:17.386Z,785.29
2017-09-03T00:22:21.611Z,785.31
2017-09-03T00:22:25.691Z,785.3
2017-09-03T00:22:29.778Z,785.32
2017-09-03T00:22:34.001Z,785.3
2017-09-03T00:22:37.976Z,785.28
2017-09-03T00:22:41.939Z,785.31
2017-09-03T00:22:46.140Z,785.3
2017-09-03T00:22:50.242Z,785.31
2017-09-03T00:22:54.461Z,785.28
2017-09-03T00:22:58.542Z,785.29
2017-09-03T00:23:02.909Z,785.29
2017-09-03T00:23:07.133Z,785.27
2017-09-03T00:23:11.353Z,785.34
2017-09-03T00:23:15.808Z,785.32
2017-09-03T00:23:20.030Z,785.33
2017-09-03T00:23:24.239Z,785.33
2017-09-03T00:23:28.450Z,785.34
2017-09-03T00:23:32.535Z,785.31
2017-09-03T00:23:36.508Z,785.32
2017-09-03T00:23:40.759Z,785.33
2017-09-03T00:23:44.713Z,785.32
2017-09-03T00:23:48.677Z,785.32
2017-09-03T00:23:52.522Z,785.32
2017-09-03T00:23:56.780Z,785.31
2017-09-03T00:24:00.974Z,785.32
2017-09-03T00:24:05.235Z,785.34
2017-09-03T00:24:09.443Z,785.34
2017-09-03T00:24:13.409Z,785.34
2017-09-03T00:24:17.356Z,785.32
2017-09-03T00:24:21.443Z,785.33
2017-09-03T00:24:25.418Z,785.33
2017-09-03T00:24:29.503Z,785.32
2017-09-03T00:24:33.351Z,785.31
2017-09-03T00:24:37.436Z,785.3
2017-09-03T00:24:41.779Z,785.31
2017-09-03T00:24:46.042Z,785.31
2017-09-03T00:24:49.741Z,785.29
2017-09-03T00:24:53.826Z,785.32
2017-09-03T00:24:58.038Z,785.34
2017-09-03T00:25:02.599Z,785.37
2017-09-03T00:25:06.804Z,785.36
2017-09-03T00:25:10.753Z,785.37
2017-09-03T00:25:15.100Z,785.38
2017-09-03T00:25:18.943Z,785.36
2017-09-03T00:25:23.393Z,785.36
2017-09-03T00:25:27.105Z,785.35
2017-09-03T00:25:31.076Z,785.39
2017-09-03T00:25:35.276Z,785.34
2017-09-03T00:25:39.240Z,785.37
2017-09-03T00:25:43.452Z,785.36
2017-09-03T00:25:47.533Z,785.38
2017-09-03T00:25:51.621Z,785.34
2017-09-03T00:25:55.323Z,785.39
2017-09-03T00:25:59.527Z,785.35
2017-09-03T00:26:03.791Z,785.32
2017-09-03T00:26:08.238Z,785.38
2017-09-03T00:26:12.329Z,785.38
2017-09-03T00:26:16.034Z,785.41
2017-09-03T00:26:20.117Z,785.39
2017-09-03T00:26:24.210Z,785.38
2017-09-03T00:26:28.172Z,785.38
2017-09-03T00:26:32.119Z,785.37
2017-09-03T00:26:36.326Z,785.41
2017-09-03T00:26:40.666Z,785.38
2017-09-03T00:26:44.648Z,785.39
2017-09-03T00:26:49.119Z,785.39
2017-09-03T00:26:53.211Z,785.4
2017-09-03T00:26:57.295Z,785.4
2017-09-03T00:27:01.629Z,785.38
2017-09-03T00:27:05.821Z,785.37
2017-09-03T00:27:09.900Z,785.42
2017-09-03T00:27:13.976Z,785.41
2017-09-03T00:27:18.308Z,785.42
2017-09-03T00:27:22.637Z,785.39
2017-09-03T00:27:26.716Z,785.4
2017-09-03T00:27:30.683Z,785.41
2017-09-03T00:27:35.032Z,785.43
2017-09-03T00:27:39.241Z,785.41
2017-09-03T00:27:43.343Z,785.4
2017-09-03T00:27:47.422Z,785.38
2017-09-03T00:27:51.649Z,785.36
2017-09-03T00:27:55.617Z,785.39
2017-09-03T00:27:59.346Z,785.4
2017-09-03T00:28:03.428Z,785.39
2017-09-03T00:28:07.525Z,785.4
2017-09-03T00:28:11.865Z,785.36
2017-09-03T00:28:16.205Z,785.43
2017-09-03T00:28:20.157Z,785.41
2017-09-03T00:28:24.250Z,785.39
2017-09-03T00:28:28.336Z,785.38
2017-09-03T00:28:32.791Z,785.41
2017-09-03T00:28:36.986Z,785.38
2017-09-03T00:28:41.203Z,785.35
2017-09-03T00:28:45.297Z,785.33
2017-09-03T00:28:49.496Z,785.36
2017-09-03T00:28:53.330Z,785.38
2017-09-03T00:28:57.408Z,785.38
2017-09-03T00:29:01.521Z,785.38
2017-09-03T00:29:05.992Z,785.34
2017-09-03T00:29:09.958Z,785.41
2017-09-03T00:29:14.328Z,785.41
2017-09-03T00:29:18.545Z,785.38
2017-09-03T00:29:22.892Z,785.39
2017-09-03T00:29:27.365Z,785.4
2017-09-03T00:29:31.580Z,785.4
2017-09-03T00:29:35.913Z,785.4
2017-09-03T00:29:40.265Z,785.38
2017-09-03T00:29:44.357Z,785.41
2017-09-03T00:29:48.437Z,785.41
2017-09-03T00:29:52.528Z,785.38
2017-09-03T00:29:56.618Z,785.38
2017-09-03T00:30:00.723Z,785.39
2017-09-03T00:30:04.833Z,785.38
2017-09-03T00:30:08.786Z,785.42
2017-09-03T00:30:12.862Z,785.35
2017-09-03T00:30:16.698Z,785.39
2017-09-03T00:30:20.913Z,785.4
2017-09-03T00:30:25.013Z,785.4
2017-09-03T00:30:29.103Z,785.37
2017-09-03T00:30:33.454Z,785.34
2017-09-03T00:30:37.958Z,785.35
2017-09-03T00:30:42.417Z,785.33
2017-09-03T00:30:46.755Z,785.41
2017-09-03T00:30:50.843Z,785.36
2017-09-03T00:30:54.918Z,785.39
2017-09-03T00:30:58.754Z,785.37
2017-09-03T00:31:02.714Z,785.36
2017-09-03T00:31:06.660Z,785.37
2017-09-03T00:31:10.867Z,785.39
2017-09-03T00:31:15.305Z,785.35
2017-09-03T00:31:19.501Z,785.39
2017-09-03T00:31:23.709Z,785.38
2017-09-03T00:31:27.842Z,785.38
2017-09-03T00:31:32.308Z,785.39
2017-09-03T00:31:36.506Z,785.38
2017-09-03T00:31:40.854Z,785.34
2017-09-03T00:31:45.083Z,785.38
2017-09-03T00:31:49.169Z,785.36
2017-09-03T00:31:53.627Z,785.39
2017-09-03T00:31:57.593Z,785.39
2017-09-03T00:32:01.557Z,785.36
2017-09-03T00:32:06.132Z,785.34
2017-09-03T00:32:10.216Z,785.37
2017-09-03T00:32:14.050Z,785.33
2017-09-03T00:32:18.011Z,785.33
2017-09-03T00:32:22.227Z,785.34
2017-09-03T00:32:26.434Z,785.33
2017-09-03T00:32:30.515Z,785.3
2017-09-03T00:32:34.472Z,785.34
2017-09-03T00:32:38.813Z,785.3
2017-09-03T00:32:43.277Z,785.37
2017-09-03T00:32:47.528Z,785.35
2017-09-03T00:32:51.601Z,785.36
2017-09-03T00:32:55.828Z,785.34
2017-09-03T00:32:59.790Z,785.34
2017-09-03T00:33:03.755Z,785.37
2017-09-03T00:33:07.977Z,785.33
2017-09-03T00:33:12.312Z,785.33
2017-09-03T00:33:16.273Z,785.33
2017-09-03T00:33:20.486Z,785.34
2017-09-03T00:33:24.560Z,785.32
2017-09-03T00:33:28.764Z,785.31
2017-09-03T00:33:32.849Z,785.33
2017-09-03T00:33:37.171Z,785.31
2017-09-03T00:33:41.492Z,785.35
2017-09-03T00:33:45.452Z,785.32
2017-09-03T00:33:49.788Z,785.34
2017-09-03T00:33:53.764Z,785.36
2017-09-03T00:33:57.969Z,785.29
2017-09-03T00:34:02.489Z,785.33
2017-09-03T00:34:06.735Z,785.31
2017-09-03T00:34:10.821Z,785.25
2017-09-03T00:34:15.151Z,785.28
2017-09-03T00:34:19.365Z,785.29
2017-09-03T00:34:23.324Z,785.3
2017-09-03T00:34:27.532Z,785.36
2017-09-03T00:34:31.613Z,785.31
2017-09-03T00:34:35.820Z,785.31
2017-09-03T00:34:40.149Z,785.31
2017-09-03T00:34:44.362Z,785.32
2017-09-03T00:34:48.564Z,785.3
2017-09-03T00:34:52.418Z,785.28
2017-09-03T00:34:56.499Z,785.28
2017-09-03T00:35:00.465Z,785.28
2017-09-03T00:35:04.821Z,785.31
2017-09-03T00:35:08.907Z,785.26
2017-09-03T00:35:13.001Z,785.25
2017-09-03T00:35:17.207Z,785.29
2017-09-03T00:35:21.180Z,785.29
2017-09-03T00:35:25.393Z,785.3
2017-09-03T00:35:29.599Z,785.27
2017-09-03T00:35:33.805Z,785.29
2017-09-03T00:35:37.902Z,785.28
2017-09-03T00:35:41.984Z,785.27
2017-09-03T00:35:45.938Z,785.28
2017-09-03T00:35:49.759Z,785.26
2017-09-03T00:35:53.850Z,785.21
2017-09-03T00:35:57.936Z,785.27
2017-09-03T00:36:02.020Z,785.27
2017-09-03T00:36:06.113Z,785.25
2017-09-03T00:36:10.062Z,785.24
2017-09-03T00:36:14.276Z,785.24
2017-09-03T00:36:18.349Z,785.23
2017-09-03T00:36:22.564Z,785.23
2017-09-03T00:36:26.526Z,785.23
2017-09-03T00:36:30.625Z,785.21
2017-09-03T00:36:34.711Z,785.23
2017-09-03T00:36:38.791Z,785.23
2017-09-03T00:36:43.148Z,785.25
2017-09-03T00:36:47.120Z,785.22
2017-09-03T00:36:51.198Z,785.24
2017-09-03T00:36:55.529Z,785.21
2017-09-03T00:36:59.871Z,785.22
2017-09-03T00:37:04.055Z,785.23
2017-09-03T00:37:08.130Z,785.24
2017-09-03T00:37:12.208Z,785.23
2017-09-03T00:37:16.437Z,785.22
2017-09-03T00:37:20.528Z,785.23
2017-09-03T00:37:24.737Z,785.19
2017-09-03T00:37:28.831Z,785.23
2017-09-03T00:37:32.906Z,785.17
2017-09-03T00:37:37.006Z,785.19
2017-09-03T00:37:41.219Z,785.21
2017-09-03T00:37:45.564Z,785.21
2017-09-03T00:37:49.523Z,785.18
2017-09-03T00:37:53.725Z,785.2
2017-09-03T00:37:57.686Z,785.2
2017-09-03T00:38:01.966Z,785.2
2017-09-03T00:38:06.312Z,785.22
2017-09-03T00:38:10.387Z,785.19
2017-09-03T00:38:14.608Z,785.19
2017-09-03T00:38:18.696Z,785.16
2017-09-03T00:38:22.903Z,785.19
2017-09-03T00:38:27.255Z,785.14
2017-09-03T00:38:31.329Z,785.16
2017-09-03T00:38:35.670Z,785.18
2017-09-03T00:38:39.882Z,785.16
2017-09-03T00:38:43.842Z,785.19
2017-09-03T00:38:47.670Z,785.2
2017-09-03T00:38:51.735Z,785.16
2017-09-03T00:38:55.931Z,785.16
2017-09-03T00:39:00.025Z,785.16
2017-09-03T00:39:04.296Z,785.18
2017-09-03T00:39:08.492Z,785.12
2017-09-03T00:39:12.828Z,785.09
2017-09-03T00:39:16.924Z,785.13
2017-09-03T00:39:21.164Z,785.1
2017-09-03T00:39:24.994Z,785.09
2017-09-03T00:39:28.820Z,785.15
2017-09-03T00:39:32.899Z,785.12
2017-09-03T00:39:37.093Z,785.13
2017-09-03T00:39:40.937Z,785.18
2017-09-03T00:39:44.896Z,785.13
2017-09-03T00:39:49.348Z,785.14
2017-09-03T00:39:53.434Z,785.14
2017-09-03T00:39:57.288Z,785.15
2017-09-03T00:40:01.258Z,785.15
2017-09-03T00:40:05.713Z,785.15
2017-09-03T00:40:09.793Z,785.14
2017-09-03T00:40:13.986Z,785.15
2017-09-03T00:40:17.947Z,785.14
2017-09-03T00:40:22.032Z,785.14
2017-09-03T00:40:26.486Z,785.14
2017-09-03T00:40:30.570Z,785.14
2017-09-03T00:40:34.785Z,785.15
2017-09-03T00:40:38.995Z,785.14
2017-09-03T00:40:43.203Z,785.12
2017-09-03T00:40:47.552Z,785.17
2017-09-03T00:40:51.624Z,785.15
2017-09-03T00:40:55.858Z,785.14
2017-09-03T00:41:00.064Z,785.15
2017-09-03T00:41:04.147Z,785.15
2017-09-03T00:41:08.495Z,785.15
2017-09-03T00:41:12.690Z,785.15
2017-09-03T00:41:16.777Z,785.12
2017-09-03T00:41:21.104Z,785.14
2017-09-03T00:41:25.205Z,785.08
2017-09-03T00:41:29.412Z,785.07
2017-09-03T00:41:33.499Z,785.07
2017-09-03T00:41:37.582Z,785.06
2017-09-03T00:41:41.666Z,785.14
2017-09-03T00:41:45.879Z,785.14
2017-09-03T00:41:50.339Z,785.12
2017-09-03T00:41:54.535Z,785.09
2017-09-03T00:41:58.749Z,785.06
2017-09-03T00:42:03.175Z,785.05
2017-09-03T00:42:07.134Z,785.1
2017-09-03T00:42:11.106Z,785.1
2017-09-03T00:42:15.060Z,785.1
2017-09-03T00:42:19.283Z,785.11
2017-09-03T00:42:23.367Z,785.09
2017-09-03T00:42:27.461Z,785.09
2017-09-03T00:42:31.922Z,785.11
2017-09-03T00:42:36.146Z,785.09
2017-09-03T00:42:40.358Z,785.12
2017-09-03T00:42:44.319Z,785.07
2017-09-03T00:42:48.659Z,785.08
2017-09-03T00:42:52.883Z,785.09
2017-09-03T00:42:56.850Z,785.11
2017-09-03T00:43:00.668Z,785.08
2017-09-03T00:43:05.175Z,785.04
2017-09-03T00:43:09.514Z,785.08
2017-09-03T00:43:13.475Z,785.06
2017-09-03T00:43:17.820Z,785.03
2017-09-03T00:43:22.019Z,785.04
2017-09-03T00:43:26.367Z,785.04
2017-09-03T00:43:30.320Z,785.03
2017-09-03T00:43:34.375Z,785.01
2017-09-03T00:43:38.583Z,785.04
2017-09-03T00:43:42.676Z,785.04
2017-09-03T00:43:47.008Z,784.98
2017-09-03T00:43:51.344Z,785.01
2017-09-03T00:43:55.298Z,785.06
2017-09-03T00:43:59.374Z,785.03
2017-09-03T00:44:03.701Z,785.02
2017-09-03T00:44:08.165Z,785.02
2017-09-03T00:44:12.366Z,785.03
2017-09-03T00:44:16.208Z,785.05
2017-09-03T00:44:20.594Z,785.01
2017-09-03T00:44:24.534Z,785
2017-09-03T00:44:28.633Z,785.04
2017-09-03T00:44:32.597Z,785.01
2017-09-03T00:44:36.682Z,785.01
2017-09-03T00:44:41.019Z,785.01
2017-09-03T00:44:44.981Z,784.99
2017-09-03T00:44:49.182Z,785.01
2017-09-03T00:44:53.139Z,784.96
2017-09-03T00:44:57.096Z,784.98
2017-09-03T00:45:01.046Z,785.01
2017-09-03T00:45:05.393Z,785.02
2017-09-03T00:45:09.617Z,784.98
2017-09-03T00:45:13.574Z,784.97
2017-09-03T00:45:17.648Z,784.94
2017-09-03T00:45:21.744Z,785.03
2017-09-03T00:45:25.823Z,785.02
2017-09-03T00:45:29.899Z,785.01
2017-09-03T00:45:33.850Z,784.99
2017-09-03T00:45:37.943Z,784.99
2017-09-03T00:45:42.068Z,784.99
2017-09-03T00:45:46.258Z,785
2017-09-03T00:45:50.087Z,784.98
2017-09-03T00:45:54.318Z,785.01
2017-09-03T00:45:58.277Z,784.99
2017-09-03T00:46:02.104Z,784.98
2017-09-03T00:46:06.342Z,785.01
2017-09-03T00:46:10.450Z,785.03
2017-09-03T00:46:14.792Z,784.98
2017-09-03T00:46:18.735Z,785
2017-09-03T00:46:22.949Z,785
2017-09-03T00:46:27.162Z,785.01
2017-09-03T00:46:31.255Z,785.02
2017-09-03T00:46:35.349Z,785.01
2017-09-03T00:46:39.435Z,785
2017-09-03T00:46:43.518Z,785.01
2017-09-03T00:46:47.601Z,785.02
2017-09-03T00:46:51.801Z,785.02
2017-09-03T00:46:55.884Z,784.98
2017-09-03T00:47:00.105Z,785
2017-09-03T00:47:04.317Z,785.01
2017-09-03T00:47:08.023Z,784.98
2017-09-03T00:47:11.998Z,784.99
2017-09-03T00:47:15.822Z,785
2017-09-03T00:47:20.043Z,785.02
2017-09-03T00:47:24.003Z,785
2017-09-03T00:47:28.097Z,784.99
2017-09-03T00:47:32.184Z,785
2017-09-03T00:47:36.142Z,784.99
2017-09-03T00:47:40.487Z,784.99
2017-09-03T00:47:44.700Z,784.98
2017-09-03T00:47:48.795Z,784.95
2017-09-03T00:47:52.881Z,784.95
2017-09-03T00:47:56.959Z,784.96
2017-09-03T00:48:33.149Z,784.97
2017-09-03T00:48:37.251Z,785
2017-09-03T00:48:41.582Z,785.02
2017-09-03T00:48:45.668Z,785.01
2017-09-03T00:48:49.755Z,784.96
2017-09-03T00:48:53.846Z,784.96
2017-09-03T00:48:57.957Z,784.95
2017-09-03T00:49:01.923Z,784.94
2017-09-03T00:49:05.893Z,784.95
2017-09-03T00:49:10.092Z,784.98
2017-09-03T00:49:14.072Z,785.02
2017-09-03T00:49:18.047Z,785.04
2017-09-03T00:49:22.248Z,785.03
2017-09-03T00:49:26.076Z,785.05
2017-09-03T00:49:30.037Z,785.03
2017-09-03T00:49:34.106Z,784.99
2017-09-03T00:49:38.325Z,785.01
2017-09-03T00:49:42.283Z,785.03
2017-09-03T00:49:46.122Z,784.99
2017-09-03T00:49:50.317Z,785.04
2017-09-03T00:49:54.280Z,784.99
2017-09-03T00:49:58.371Z,785.04
2017-09-03T00:50:02.589Z,785.02
2017-09-03T00:50:07.057Z,785.04
2017-09-03T00:50:11.013Z,785
2017-09-03T00:50:15.233Z,785.06
2017-09-03T00:50:19.226Z,785.04
2017-09-03T00:50:23.427Z,785
2017-09-03T00:50:27.505Z,785.02
2017-09-03T00:50:31.986Z,785.05
2017-09-03T00:50:35.959Z,784.99
2017-09-03T00:50:40.157Z,785.02
2017-09-03T00:50:44.491Z,785
2017-09-03T00:50:48.693Z,785.04
2017-09-03T00:50:52.781Z,785.04
2017-09-03T00:50:56.866Z,785.02
2017-09-03T00:51:00.961Z,785.02
2017-09-03T00:51:05.100Z,785.05
2017-09-03T00:51:09.052Z,784.98
2017-09-03T00:51:13.270Z,785.03
2017-09-03T00:51:17.590Z,785.01
2017-09-03T00:51:21.819Z,785.03
2017-09-03T00:51:25.979Z,785
2017-09-03T00:51:29.832Z,785.03
2017-09-03T00:51:33.805Z,785.01
2017-09-03T00:51:38.019Z,785.03
2017-09-03T00:51:41.990Z,785.02
2017-09-03T00:51:46.194Z,784.99
2017-09-03T00:51:50.263Z,785.02
2017-09-03T00:51:54.594Z,785.03
2017-09-03T00:51:58.817Z,785.01
2017-09-03T00:52:02.997Z,785.02
2017-09-03T00:52:07.096Z,785.02
2017-09-03T00:52:11.074Z,785.01
2017-09-03T00:52:15.167Z,784.97
2017-09-03T00:52:19.122Z,784.99
2017-09-03T00:52:23.213Z,785.02
2017-09-03T00:52:27.422Z,784.98
2017-09-03T00:52:31.397Z,784.94
2017-09-03T00:52:35.610Z,784.99
2017-09-03T00:52:39.588Z,785
2017-09-03T00:52:43.803Z,785.01
2017-09-03T00:52:47.768Z,785.01
2017-09-03T00:52:51.956Z,785.01
2017-09-03T00:52:56.292Z,785.02
2017-09-03T00:53:00.516Z,784.99
2017-09-03T00:53:04.715Z,785.02
2017-09-03T00:53:08.663Z,784.98